KMOR/MOR METAR and TAF weather

Enter ICAO airport designator
Station Type Date Time Source
KMOR METAR 2021/05/15 02:15 UTC NOAA

KMOR 150215Z AUTO 00000KT 10SM CLR 12/04 A3024 RMK A01


Station Type Date Time Source
KMOR Decoded METAR 2021/05/15 02:15 UTC NOAA

Station name not available
May 14, 2021 - 10:15 PM EDT / 2021.05.15 0215 UTC
Wind: Calm:0
Visibility: 10 mile(s):0
Sky conditions: clear
Temperature: 53 F (12 C)
Dew Point: 39 F (4 C)
Relative Humidity: 57%
Pressure (altimeter): 30.24 in. Hg (1024 hPa)
ob: KMOR 150215Z AUTO 00000KT 10SM CLR 12/04 A3024 RMK A01
cycle: 2

Station Type Date Time Source
KMOR TAF UTC NOAA

Error!

Example: see airport list